sensor_id;sensor_type;location;lat;lon;timestamp;temperature;humidity
32787;DHT22;19139;49.372;8.580;2023-01-29T00:00:13;17.30;90.60
32787;DHT22;19139;49.372;8.580;2023-01-29T00:02:41;17.30;90.60
32787;DHT22;19139;49.372;8.580;2023-01-29T00:05:08;17.40;90.60
32787;DHT22;19139;49.372;8.580;2023-01-29T00:07:52;17.40;90.60
32787;DHT22;19139;49.372;8.580;2023-01-29T00:10:19;17.30;90.60
32787;DHT22;19139;49.372;8.580;2023-01-29T00:12:45;17.40;90.60
32787;DHT22;19139;49.372;8.580;2023-01-29T00:15:17;17.40;90.60
32787;DHT22;19139;49.372;8.580;2023-01-29T00:17:44;17.40;90.60
32787;DHT22;19139;49.372;8.580;2023-01-29T00:23:58;17.30;90.60
32787;DHT22;19139;49.372;8.580;2023-01-29T00:26:26;17.40;90.60
32787;DHT22;19139;49.372;8.580;2023-01-29T00:28:54;17.30;90.60
32787;DHT22;19139;49.372;8.580;2023-01-29T00:31:23;17.30;90.60
32787;DHT22;19139;49.372;8.580;2023-01-29T00:33:51;17.40;90.60
32787;DHT22;19139;49.372;8.580;2023-01-29T00:36:19;17.30;90.60
32787;DHT22;19139;49.372;8.580;2023-01-29T00:38:46;17.40;90.60
32787;DHT22;19139;49.372;8.580;2023-01-29T00:41:20;17.30;90.60
32787;DHT22;19139;49.372;8.580;2023-01-29T00:44:06;17.40;90.60
32787;DHT22;19139;49.372;8.580;2023-01-29T00:46:51;17.30;90.60
32787;DHT22;19139;49.372;8.580;2023-01-29T00:49:18;17.30;90.50
32787;DHT22;19139;49.372;8.580;2023-01-29T00:51:45;17.30;90.60
32787;DHT22;19139;49.372;8.580;2023-01-29T00:54:35;17.30;90.50
32787;DHT22;19139;49.372;8.580;2023-01-29T00:57:03;17.30;90.50
32787;DHT22;19139;49.372;8.580;2023-01-29T00:59:30;17.30;90.50
32787;DHT22;19139;49.372;8.580;2023-01-29T01:01:56;17.30;90.50
32787;DHT22;19139;49.372;8.580;2023-01-29T01:04:41;17.30;90.50
32787;DHT22;19139;49.372;8.580;2023-01-29T01:07:08;17.30;90.50
32787;DHT22;19139;49.372;8.580;2023-01-29T01:09:35;17.30;90.50
32787;DHT22;19139;49.372;8.580;2023-01-29T01:12:20;17.30;90.50
32787;DHT22;19139;49.372;8.580;2023-01-29T01:14:48;17.30;90.50
32787;DHT22;19139;49.372;8.580;2023-01-29T01:17:15;17.30;90.50
32787;DHT22;19139;49.372;8.580;2023-01-29T01:19:42;17.30;90.50
32787;DHT22;19139;49.372;8.580;2023-01-29T01:22:14;17.30;90.50
32787;DHT22;19139;49.372;8.580;2023-01-29T01:24:40;17.30;90.50
32787;DHT22;19139;49.372;8.580;2023-01-29T01:27:07;17.30;90.50
32787;DHT22;19139;49.372;8.580;2023-01-29T01:29:34;17.30;90.50
32787;DHT22;19139;49.372;8.580;2023-01-29T01:32:01;17.30;90.50
32787;DHT22;19139;49.372;8.580;2023-01-29T01:34:28;17.40;90.50
32787;DHT22;19139;49.372;8.580;2023-01-29T01:36:58;17.30;90.50
32787;DHT22;19139;49.372;8.580;2023-01-29T01:39:25;17.30;90.50
32787;DHT22;19139;49.372;8.580;2023-01-29T01:41:52;17.30;90.40
32787;DHT22;19139;49.372;8.580;2023-01-29T01:44:48;17.30;90.50
32787;DHT22;19139;49.372;8.580;2023-01-29T01:47:39;17.30;90.70
32787;DHT22;19139;49.372;8.580;2023-01-29T01:50:20;17.30;90.50
32787;DHT22;19139;49.372;8.580;2023-01-29T01:52:52;17.30;90.50
32787;DHT22;19139;49.372;8.580;2023-01-29T01:55:23;17.30;90.80
32787;DHT22;19139;49.372;8.580;2023-01-29T01:57:56;17.30;90.50
32787;DHT22;19139;49.372;8.580;2023-01-29T02:00:29;17.30;90.50
32787;DHT22;19139;49.372;8.580;2023-01-29T02:02:56;17.30;90.50
32787;DHT22;19139;49.372;8.580;2023-01-29T02:05:42;17.30;90.50
32787;DHT22;19139;49.372;8.580;2023-01-29T02:08:46;17.30;90.50
32787;DHT22;19139;49.372;8.580;2023-01-29T02:11:36;17.30;90.50
32787;DHT22;19139;49.372;8.580;2023-01-29T02:14:03;17.30;90.50
32787;DHT22;19139;49.372;8.580;2023-01-29T02:16:33;17.30;90.50
32787;DHT22;19139;49.372;8.580;2023-01-29T02:19:00;17.30;90.40
32787;DHT22;19139;49.372;8.580;2023-01-29T02:21:51;17.20;90.40
32787;DHT22;19139;49.372;8.580;2023-01-29T02:27:23;17.20;90.40
32787;DHT22;19139;49.372;8.580;2023-01-29T02:30:05;17.30;90.40
32787;DHT22;19139;49.372;8.580;2023-01-29T02:32:40;17.20;90.40
32787;DHT22;19139;49.372;8.580;2023-01-29T02:35:44;17.20;90.40
32787;DHT22;19139;49.372;8.580;2023-01-29T02:38:29;17.20;90.40
32787;DHT22;19139;49.372;8.580;2023-01-29T02:41:18;17.20;90.40
32787;DHT22;19139;49.372;8.580;2023-01-29T02:44:05;17.20;90.40
32787;DHT22;19139;49.372;8.580;2023-01-29T02:47:00;17.20;90.40
32787;DHT22;19139;49.372;8.580;2023-01-29T02:55:14;17.20;90.40
32787;DHT22;19139;49.372;8.580;2023-01-29T02:57:47;17.30;90.40
32787;DHT22;19139;49.372;8.580;2023-01-29T03:00:25;17.20;90.40
32787;DHT22;19139;49.372;8.580;2023-01-29T03:03:02;17.20;90.40
32787;DHT22;19139;49.372;8.580;2023-01-29T03:05:36;17.20;90.40
32787;DHT22;19139;49.372;8.580;2023-01-29T03:08:13;17.20;90.40
32787;DHT22;19139;49.372;8.580;2023-01-29T03:10:52;17.20;90.40
32787;DHT22;19139;49.372;8.580;2023-01-29T03:18:52;17.20;90.40
32787;DHT22;19139;49.372;8.580;2023-01-29T03:21:33;17.20;90.40
32787;DHT22;19139;49.372;8.580;2023-01-29T03:27:29;17.20;90.40
32787;DHT22;19139;49.372;8.580;2023-01-29T03:30:16;17.20;90.40
32787;DHT22;19139;49.372;8.580;2023-01-29T03:33:06;17.20;90.40
32787;DHT22;19139;49.372;8.580;2023-01-29T03:35:37;17.20;90.40
32787;DHT22;19139;49.372;8.580;2023-01-29T03:38:08;17.20;90.40
32787;DHT22;19139;49.372;8.580;2023-01-29T03:43:54;17.20;90.40
32787;DHT22;19139;49.372;8.580;2023-01-29T03:49:29;17.20;90.40
32787;DHT22;19139;49.372;8.580;2023-01-29T03:55:01;17.20;90.40
32787;DHT22;19139;49.372;8.580;2023-01-29T04:00:39;17.10;90.30
32787;DHT22;19139;49.372;8.580;2023-01-29T04:03:23;17.20;90.40
32787;DHT22;19139;49.372;8.580;2023-01-29T04:06:08;17.20;90.40
32787;DHT22;19139;49.372;8.580;2023-01-29T04:08:58;17.20;90.30
32787;DHT22;19139;49.372;8.580;2023-01-29T04:11:28;17.10;90.30
32787;DHT22;19139;49.372;8.580;2023-01-29T04:13:56;17.10;90.30
32787;DHT22;19139;49.372;8.580;2023-01-29T04:16:27;17.20;90.30
32787;DHT22;19139;49.372;8.580;2023-01-29T04:18:54;17.10;90.30
32787;DHT22;19139;49.372;8.580;2023-01-29T04:21:22;17.20;90.30
32787;DHT22;19139;49.372;8.580;2023-01-29T04:23:50;17.20;90.30
32787;DHT22;19139;49.372;8.580;2023-01-29T04:26:52;17.10;90.30
32787;DHT22;19139;49.372;8.580;2023-01-29T04:40:47;17.10;90.30
32787;DHT22;19139;49.372;8.580;2023-01-29T04:43:53;17.10;90.30
32787;DHT22;19139;49.372;8.580;2023-01-29T04:46:30;17.10;90.30
32787;DHT22;19139;49.372;8.580;2023-01-29T04:49:34;17.10;90.30
32787;DHT22;19139;49.372;8.580;2023-01-29T04:52:11;17.10;90.30
32787;DHT22;19139;49.372;8.580;2023-01-29T04:55:12;17.10;90.30
32787;DHT22;19139;49.372;8.580;2023-01-29T04:57:53;17.10;90.30
32787;DHT22;19139;49.372;8.580;2023-01-29T05:00:37;17.10;90.30
32787;DHT22;19139;49.372;8.580;2023-01-29T05:03:05;17.10;90.60
32787;DHT22;19139;49.372;8.580;2023-01-29T05:05:35;17.10;90.20
32787;DHT22;19139;49.372;8.580;2023-01-29T05:08:02;17.10;90.20
32787;DHT22;19139;49.372;8.580;2023-01-29T05:10:29;17.10;90.20
32787;DHT22;19139;49.372;8.580;2023-01-29T05:13:01;17.10;90.20
32787;DHT22;19139;49.372;8.580;2023-01-29T05:15:35;17.10;90.20
32787;DHT22;19139;49.372;8.580;2023-01-29T05:18:02;17.10;90.20
32787;DHT22;19139;49.372;8.580;2023-01-29T05:20:31;17.10;90.20
32787;DHT22;19139;49.372;8.580;2023-01-29T05:22:58;17.10;90.20
32787;DHT22;19139;49.372;8.580;2023-01-29T05:25:28;17.10;90.20
32787;DHT22;19139;49.372;8.580;2023-01-29T05:27:55;17.10;90.20
32787;DHT22;19139;49.372;8.580;2023-01-29T05:30:53;17.10;90.20
32787;DHT22;19139;49.372;8.580;2023-01-29T05:33:25;17.10;90.60
32787;DHT22;19139;49.372;8.580;2023-01-29T05:35:53;17.10;90.20
32787;DHT22;19139;49.372;8.580;2023-01-29T05:38:20;17.10;90.20
32787;DHT22;19139;49.372;8.580;2023-01-29T05:40:48;17.10;90.20
32787;DHT22;19139;49.372;8.580;2023-01-29T05:43:19;17.10;90.20
32787;DHT22;19139;49.372;8.580;2023-01-29T05:45:59;17.10;90.20
32787;DHT22;19139;49.372;8.580;2023-01-29T05:48:27;17.10;90.20
32787;DHT22;19139;49.372;8.580;2023-01-29T05:51:02;17.10;90.20
32787;DHT22;19139;49.372;8.580;2023-01-29T05:53:29;17.10;90.20
32787;DHT22;19139;49.372;8.580;2023-01-29T05:55:59;17.10;90.20
32787;DHT22;19139;49.372;8.580;2023-01-29T05:58:26;17.10;90.20
32787;DHT22;19139;49.372;8.580;2023-01-29T06:00:52;17.10;90.20
32787;DHT22;19139;49.372;8.580;2023-01-29T06:03:19;17.10;90.20
32787;DHT22;19139;49.372;8.580;2023-01-29T06:05:46;17.10;90.20
32787;DHT22;19139;49.372;8.580;2023-01-29T06:08:13;17.00;90.10
32787;DHT22;19139;49.372;8.580;2023-01-29T06:10:39;17.00;90.20
32787;DHT22;19139;49.372;8.580;2023-01-29T06:13:06;17.10;90.20
32787;DHT22;19139;49.372;8.580;2023-01-29T06:15:33;17.10;90.20
32787;DHT22;19139;49.372;8.580;2023-01-29T06:18:00;17.10;90.20
32787;DHT22;19139;49.372;8.580;2023-01-29T06:20:26;17.10;90.50
32787;DHT22;19139;49.372;8.580;2023-01-29T06:22:53;17.10;90.20
32787;DHT22;19139;49.372;8.580;2023-01-29T06:25:20;17.00;90.10
32787;DHT22;19139;49.372;8.580;2023-01-29T06:27:49;17.10;90.20
32787;DHT22;19139;49.372;8.580;2023-01-29T06:30:16;17.00;90.10
32787;DHT22;19139;49.372;8.580;2023-01-29T06:32:44;17.10;90.10
32787;DHT22;19139;49.372;8.580;2023-01-29T06:35:10;17.10;90.20
32787;DHT22;19139;49.372;8.580;2023-01-29T06:37:37;17.10;90.10
32787;DHT22;19139;49.372;8.580;2023-01-29T06:40:04;17.00;90.10
32787;DHT22;19139;49.372;8.580;2023-01-29T06:42:31;17.10;90.20
32787;DHT22;19139;49.372;8.580;2023-01-29T06:45:00;17.00;90.10
32787;DHT22;19139;49.372;8.580;2023-01-29T06:47:27;17.00;90.10
32787;DHT22;19139;49.372;8.580;2023-01-29T06:49:53;17.10;90.10
32787;DHT22;19139;49.372;8.580;2023-01-29T06:52:20;17.10;90.10
32787;DHT22;19139;49.372;8.580;2023-01-29T06:54:47;17.00;90.10
32787;DHT22;19139;49.372;8.580;2023-01-29T06:57:14;17.00;90.10
32787;DHT22;19139;49.372;8.580;2023-01-29T06:59:40;17.00;90.10
32787;DHT22;19139;49.372;8.580;2023-01-29T07:02:12;17.00;90.10
32787;DHT22;19139;49.372;8.580;2023-01-29T07:04:39;17.00;90.10
32787;DHT22;19139;49.372;8.580;2023-01-29T07:07:11;17.00;90.10
32787;DHT22;19139;49.372;8.580;2023-01-29T07:09:43;17.00;90.10
32787;DHT22;19139;49.372;8.580;2023-01-29T07:12:10;17.10;90.10
32787;DHT22;19139;49.372;8.580;2023-01-29T07:14:41;17.00;90.10
32787;DHT22;19139;49.372;8.580;2023-01-29T07:17:13;17.00;90.10
32787;DHT22;19139;49.372;8.580;2023-01-29T07:19:39;17.00;90.10
32787;DHT22;19139;49.372;8.580;2023-01-29T07:22:11;17.00;90.10
32787;DHT22;19139;49.372;8.580;2023-01-29T07:24:42;17.00;90.10
32787;DHT22;19139;49.372;8.580;2023-01-29T07:27:09;17.00;90.10
32787;DHT22;19139;49.372;8.580;2023-01-29T07:29:40;17.00;90.10
32787;DHT22;19139;49.372;8.580;2023-01-29T07:32:12;17.00;90.10
32787;DHT22;19139;49.372;8.580;2023-01-29T07:34:43;17.00;90.10
32787;DHT22;19139;49.372;8.580;2023-01-29T07:37:10;17.00;90.10
32787;DHT22;19139;49.372;8.580;2023-01-29T07:39:41;17.00;90.10
32787;DHT22;19139;49.372;8.580;2023-01-29T07:42:13;17.00;90.10
32787;DHT22;19139;49.372;8.580;2023-01-29T07:44:40;17.00;90.00
32787;DHT22;19139;49.372;8.580;2023-01-29T07:47:11;17.00;90.10
32787;DHT22;19139;49.372;8.580;2023-01-29T07:49:43;17.00;90.00
32787;DHT22;19139;49.372;8.580;2023-01-29T07:52:09;17.00;90.00
32787;DHT22;19139;49.372;8.580;2023-01-29T07:54:41;17.00;90.00
32787;DHT22;19139;49.372;8.580;2023-01-29T07:57:12;17.00;90.00
32787;DHT22;19139;49.372;8.580;2023-01-29T07:59:43;17.00;90.00
32787;DHT22;19139;49.372;8.580;2023-01-29T08:02:11;17.00;90.00
32787;DHT22;19139;49.372;8.580;2023-01-29T08:04:43;17.00;90.00
32787;DHT22;19139;49.372;8.580;2023-01-29T08:07:09;17.00;90.00
32787;DHT22;19139;49.372;8.580;2023-01-29T08:09:41;17.00;90.00
32787;DHT22;19139;49.372;8.580;2023-01-29T08:12:07;17.00;90.00
32787;DHT22;19139;49.372;8.580;2023-01-29T08:14:39;17.00;90.00
32787;DHT22;19139;49.372;8.580;2023-01-29T08:17:11;17.00;90.00
32787;DHT22;19139;49.372;8.580;2023-01-29T08:19:43;17.00;90.00
32787;DHT22;19139;49.372;8.580;2023-01-29T08:22:09;17.00;90.00
32787;DHT22;19139;49.372;8.580;2023-01-29T08:24:41;17.00;90.00
32787;DHT22;19139;49.372;8.580;2023-01-29T08:27:25;17.00;90.00
32787;DHT22;19139;49.372;8.580;2023-01-29T08:29:52;17.00;90.00
32787;DHT22;19139;49.372;8.580;2023-01-29T08:32:18;17.00;90.10
32787;DHT22;19139;49.372;8.580;2023-01-29T08:34:45;17.00;90.00
32787;DHT22;19139;49.372;8.580;2023-01-29T08:37:11;17.00;90.00
32787;DHT22;19139;49.372;8.580;2023-01-29T08:39:43;17.00;90.00
32787;DHT22;19139;49.372;8.580;2023-01-29T08:42:09;17.00;90.00
32787;DHT22;19139;49.372;8.580;2023-01-29T08:44:41;17.00;90.00
32787;DHT22;19139;49.372;8.580;2023-01-29T08:47:12;17.00;90.00
32787;DHT22;19139;49.372;8.580;2023-01-29T08:49:39;17.00;90.00
32787;DHT22;19139;49.372;8.580;2023-01-29T08:52:10;17.00;90.00
32787;DHT22;19139;49.372;8.580;2023-01-29T08:54:42;17.00;90.00
32787;DHT22;19139;49.372;8.580;2023-01-29T08:57:13;17.00;90.00
32787;DHT22;19139;49.372;8.580;2023-01-29T08:59:40;17.00;90.00
32787;DHT22;19139;49.372;8.580;2023-01-29T09:02:12;17.00;90.00
32787;DHT22;19139;49.372;8.580;2023-01-29T09:04:43;17.00;90.00
32787;DHT22;19139;49.372;8.580;2023-01-29T09:07:10;17.00;90.00
32787;DHT22;19139;49.372;8.580;2023-01-29T09:09:41;17.00;90.00
32787;DHT22;19139;49.372;8.580;2023-01-29T09:12:13;17.00;90.00
32787;DHT22;19139;49.372;8.580;2023-01-29T09:14:39;17.00;90.00
32787;DHT22;19139;49.372;8.580;2023-01-29T09:17:11;17.00;90.00
32787;DHT22;19139;49.372;8.580;2023-01-29T09:19:42;17.00;90.00
32787;DHT22;19139;49.372;8.580;2023-01-29T09:22:09;17.00;90.00
32787;DHT22;19139;49.372;8.580;2023-01-29T09:24:41;17.00;90.00
32787;DHT22;19139;49.372;8.580;2023-01-29T09:27:12;17.00;89.90
32787;DHT22;19139;49.372;8.580;2023-01-29T09:29:39;17.00;89.90
32787;DHT22;19139;49.372;8.580;2023-01-29T09:32:10;17.00;89.90
32787;DHT22;19139;49.372;8.580;2023-01-29T09:34:42;17.00;89.90
32787;DHT22;19139;49.372;8.580;2023-01-29T09:37:08;15.60;74.50
32787;DHT22;19139;49.372;8.580;2023-01-29T09:39:35;14.60;73.60
32787;DHT22;19139;49.372;8.580;2023-01-29T09:42:12;14.10;75.30
32787;DHT22;19139;49.372;8.580;2023-01-29T09:45:03;14.80;80.70
32787;DHT22;19139;49.372;8.580;2023-01-29T09:47:34;15.40;83.30
32787;DHT22;19139;49.372;8.580;2023-01-29T09:50:02;15.90;84.20
32787;DHT22;19139;49.372;8.580;2023-01-29T09:52:40;16.10;84.50
32787;DHT22;19139;49.372;8.580;2023-01-29T09:58:02;16.40;84.60
32787;DHT22;19139;49.372;8.580;2023-01-29T10:00:57;16.50;85.00
32787;DHT22;19139;49.372;8.580;2023-01-29T10:15:35;16.80;86.30
32787;DHT22;19139;49.372;8.580;2023-01-29T10:18:39;16.90;86.40
32787;DHT22;19139;49.372;8.580;2023-01-29T10:26:52;17.30;83.70
32787;DHT22;19139;49.372;8.580;2023-01-29T10:29:20;17.40;84.40
32787;DHT22;19139;49.372;8.580;2023-01-29T10:31:56;17.40;85.00
32787;DHT22;19139;49.372;8.580;2023-01-29T10:34:37;17.30;86.00
32787;DHT22;19139;49.372;8.580;2023-01-29T10:37:16;17.30;86.80
32787;DHT22;19139;49.372;8.580;2023-01-29T10:39:44;17.30;87.50
32787;DHT22;19139;49.372;8.580;2023-01-29T10:42:26;17.40;87.90
32787;DHT22;19139;49.372;8.580;2023-01-29T10:50:56;17.40;89.10
32787;DHT22;19139;49.372;8.580;2023-01-29T10:53:47;17.40;89.00
32787;DHT22;19139;49.372;8.580;2023-01-29T10:56:47;17.40;89.30
32787;DHT22;19139;49.372;8.580;2023-01-29T11:02:07;17.40;89.70
32787;DHT22;19139;49.372;8.580;2023-01-29T11:04:43;17.40;89.70
32787;DHT22;19139;49.372;8.580;2023-01-29T11:07:11;17.40;89.90
32787;DHT22;19139;49.372;8.580;2023-01-29T11:09:50;17.40;90.00
32787;DHT22;19139;49.372;8.580;2023-01-29T11:12:22;17.40;89.90
32787;DHT22;19139;49.372;8.580;2023-01-29T11:15:06;17.40;90.30
32787;DHT22;19139;49.372;8.580;2023-01-29T11:18:09;17.40;90.00
32787;DHT22;19139;49.372;8.580;2023-01-29T11:20:44;17.40;90.10
32787;DHT22;19139;49.372;8.580;2023-01-29T11:23:31;17.40;90.10
32787;DHT22;19139;49.372;8.580;2023-01-29T11:26:03;17.40;90.10
32787;DHT22;19139;49.372;8.580;2023-01-29T11:28:44;17.50;90.10
32787;DHT22;19139;49.372;8.580;2023-01-29T11:31:27;17.50;90.20
32787;DHT22;19139;49.372;8.580;2023-01-29T11:34:05;17.50;90.20
32787;DHT22;19139;49.372;8.580;2023-01-29T11:36:37;17.50;90.20
32787;DHT22;19139;49.372;8.580;2023-01-29T11:39:19;17.60;90.30
32787;DHT22;19139;49.372;8.580;2023-01-29T11:42:02;17.60;90.30
32787;DHT22;19139;49.372;8.580;2023-01-29T11:44:33;17.60;90.30
32787;DHT22;19139;49.372;8.580;2023-01-29T11:52:22;17.60;90.40
32787;DHT22;19139;49.372;8.580;2023-01-29T11:55:02;17.60;90.40
32787;DHT22;19139;49.372;8.580;2023-01-29T11:57:33;17.60;90.40
32787;DHT22;19139;49.372;8.580;2023-01-29T12:00:03;17.60;90.40
32787;DHT22;19139;49.372;8.580;2023-01-29T12:02:37;17.70;90.40
32787;DHT22;19139;49.372;8.580;2023-01-29T12:05:17;17.60;90.80
32787;DHT22;19139;49.372;8.580;2023-01-29T12:07:53;17.70;90.50
32787;DHT22;19139;49.372;8.580;2023-01-29T12:10:36;17.70;90.10
32787;DHT22;19139;49.372;8.580;2023-01-29T12:15:41;17.70;90.10
32787;DHT22;19139;49.372;8.580;2023-01-29T12:18:34;17.70;90.20
32787;DHT22;19139;49.372;8.580;2023-01-29T12:21:14;17.70;90.30
32787;DHT22;19139;49.372;8.580;2023-01-29T12:23:56;17.70;90.40
32787;DHT22;19139;49.372;8.580;2023-01-29T12:26:35;17.80;90.40
32787;DHT22;19139;49.372;8.580;2023-01-29T12:34:56;17.80;90.30
32787;DHT22;19139;49.372;8.580;2023-01-29T12:40:16;17.80;90.40
32787;DHT22;19139;49.372;8.580;2023-01-29T12:42:48;17.90;90.40
32787;DHT22;19139;49.372;8.580;2023-01-29T12:45:24;17.90;90.30
32787;DHT22;19139;49.372;8.580;2023-01-29T12:48:00;17.80;90.20
32787;DHT22;19139;49.372;8.580;2023-01-29T12:50:33;17.90;90.20
32787;DHT22;19139;49.372;8.580;2023-01-29T12:53:27;17.90;90.20
32787;DHT22;19139;49.372;8.580;2023-01-29T12:56:04;17.90;90.20
32787;DHT22;19139;49.372;8.580;2023-01-29T12:58:34;17.90;90.20
32787;DHT22;19139;49.372;8.580;2023-01-29T13:01:07;17.90;90.20
32787;DHT22;19139;49.372;8.580;2023-01-29T13:06:55;17.90;90.10
32787;DHT22;19139;49.372;8.580;2023-01-29T13:09:31;17.90;90.10
32787;DHT22;19139;49.372;8.580;2023-01-29T13:12:03;17.90;90.10
32787;DHT22;19139;49.372;8.580;2023-01-29T13:14:51;17.90;90.10
32787;DHT22;19139;49.372;8.580;2023-01-29T13:17:58;17.90;90.10
32787;DHT22;19139;49.372;8.580;2023-01-29T13:20:33;17.90;90.00
32787;DHT22;19139;49.372;8.580;2023-01-29T13:23:14;17.90;90.10
32787;DHT22;19139;49.372;8.580;2023-01-29T13:25:50;17.90;90.00
32787;DHT22;19139;49.372;8.580;2023-01-29T13:28:22;17.90;90.00
32787;DHT22;19139;49.372;8.580;2023-01-29T13:33:42;17.90;90.00
32787;DHT22;19139;49.372;8.580;2023-01-29T13:36:14;17.90;90.00
32787;DHT22;19139;49.372;8.580;2023-01-29T13:38:42;17.90;90.00
32787;DHT22;19139;49.372;8.580;2023-01-29T13:41:10;17.90;90.00
32787;DHT22;19139;49.372;8.580;2023-01-29T13:43:47;17.90;90.00
32787;DHT22;19139;49.372;8.580;2023-01-29T13:46:20;17.90;90.00
32787;DHT22;19139;49.372;8.580;2023-01-29T13:48:52;17.90;89.90
32787;DHT22;19139;49.372;8.580;2023-01-29T13:51:21;17.90;89.90
32787;DHT22;19139;49.372;8.580;2023-01-29T13:54:04;17.90;89.90
32787;DHT22;19139;49.372;8.580;2023-01-29T13:56:44;17.90;89.90
32787;DHT22;19139;49.372;8.580;2023-01-29T13:59:52;17.90;89.90
32787;DHT22;19139;49.372;8.580;2023-01-29T14:02:27;17.90;89.90
32787;DHT22;19139;49.372;8.580;2023-01-29T14:10:29;17.90;89.70
32787;DHT22;19139;49.372;8.580;2023-01-29T14:15:32;17.90;89.70
32787;DHT22;19139;49.372;8.580;2023-01-29T14:18:12;18.00;89.70
32787;DHT22;19139;49.372;8.580;2023-01-29T14:20:50;17.90;89.70
32787;DHT22;19139;49.372;8.580;2023-01-29T14:23:22;17.90;89.60
32787;DHT22;19139;49.372;8.580;2023-01-29T14:25:57;17.90;89.70
32787;DHT22;19139;49.372;8.580;2023-01-29T14:28:31;17.90;89.70
32787;DHT22;19139;49.372;8.580;2023-01-29T14:30:59;17.90;89.70
32787;DHT22;19139;49.372;8.580;2023-01-29T14:33:37;17.90;89.70
32787;DHT22;19139;49.372;8.580;2023-01-29T14:36:12;17.90;89.70
32787;DHT22;19139;49.372;8.580;2023-01-29T14:38:48;17.90;89.60
32787;DHT22;19139;49.372;8.580;2023-01-29T14:41:28;17.90;89.70
32787;DHT22;19139;49.372;8.580;2023-01-29T14:47:18;17.90;89.60
32787;DHT22;19139;49.372;8.580;2023-01-29T14:50:01;17.90;89.60
32787;DHT22;19139;49.372;8.580;2023-01-29T14:52:41;17.90;89.50
32787;DHT22;19139;49.372;8.580;2023-01-29T14:55:39;18.00;89.60
32787;DHT22;19139;49.372;8.580;2023-01-29T14:58:37;17.90;89.50
32787;DHT22;19139;49.372;8.580;2023-01-29T15:03:51;17.90;89.50
32787;DHT22;19139;49.372;8.580;2023-01-29T15:06:45;17.90;89.50
32787;DHT22;19139;49.372;8.580;2023-01-29T15:09:29;17.90;89.50
32787;DHT22;19139;49.372;8.580;2023-01-29T15:12:15;17.90;89.60
32787;DHT22;19139;49.372;8.580;2023-01-29T15:14:56;17.90;89.50
32787;DHT22;19139;49.372;8.580;2023-01-29T15:17:31;17.90;89.50
32787;DHT22;19139;49.372;8.580;2023-01-29T15:19:59;17.90;89.50
32787;DHT22;19139;49.372;8.580;2023-01-29T15:22:26;17.90;89.50
32787;DHT22;19139;49.372;8.580;2023-01-29T15:25:06;17.90;89.50
32787;DHT22;19139;49.372;8.580;2023-01-29T15:27:33;18.00;89.50
32787;DHT22;19139;49.372;8.580;2023-01-29T15:30:02;18.00;89.50
32787;DHT22;19139;49.372;8.580;2023-01-29T15:32:34;17.90;85.10
32787;DHT22;19139;49.372;8.580;2023-01-29T15:35:07;16.20;73.80
32787;DHT22;19139;49.372;8.580;2023-01-29T15:37:35;15.20;72.40
32787;DHT22;19139;49.372;8.580;2023-01-29T15:40:03;15.10;73.50
32787;DHT22;19139;49.372;8.580;2023-01-29T15:42:43;15.60;78.00
32787;DHT22;19139;49.372;8.580;2023-01-29T15:45:27;16.20;82.80
32787;DHT22;19139;49.372;8.580;2023-01-29T15:48:05;16.70;84.40
32787;DHT22;19139;49.372;8.580;2023-01-29T15:50:38;16.90;84.20
32787;DHT22;19139;49.372;8.580;2023-01-29T15:53:08;17.10;84.40
32787;DHT22;19139;49.372;8.580;2023-01-29T15:55:43;17.20;84.60
32787;DHT22;19139;49.372;8.580;2023-01-29T15:58:15;17.30;84.70
32787;DHT22;19139;49.372;8.580;2023-01-29T16:00:54;17.30;84.90
32787;DHT22;19139;49.372;8.580;2023-01-29T16:03:22;17.40;85.10
32787;DHT22;19139;49.372;8.580;2023-01-29T16:05:51;17.40;85.30
32787;DHT22;19139;49.372;8.580;2023-01-29T16:08:25;17.40;85.50
32787;DHT22;19139;49.372;8.580;2023-01-29T16:10:59;17.50;85.80
32787;DHT22;19139;49.372;8.580;2023-01-29T16:13:29;17.50;86.00
32787;DHT22;19139;49.372;8.580;2023-01-29T16:16:16;17.50;86.20
32787;DHT22;19139;49.372;8.580;2023-01-29T16:18:45;17.50;86.40
32787;DHT22;19139;49.372;8.580;2023-01-29T16:21:32;17.60;86.70
32787;DHT22;19139;49.372;8.580;2023-01-29T16:24:09;17.60;86.90
32787;DHT22;19139;49.372;8.580;2023-01-29T16:26:45;17.60;87.10
32787;DHT22;19139;49.372;8.580;2023-01-29T16:29:19;17.60;87.30
32787;DHT22;19139;49.372;8.580;2023-01-29T16:31:54;17.60;87.40
32787;DHT22;19139;49.372;8.580;2023-01-29T16:34:44;17.60;87.60
32787;DHT22;19139;49.372;8.580;2023-01-29T16:37:26;17.60;87.70
32787;DHT22;19139;49.372;8.580;2023-01-29T16:39:58;17.60;87.90
32787;DHT22;19139;49.372;8.580;2023-01-29T16:42:30;17.60;88.00
32787;DHT22;19139;49.372;8.580;2023-01-29T16:47:39;17.60;88.20
32787;DHT22;19139;49.372;8.580;2023-01-29T16:52:56;17.70;88.60
32787;DHT22;19139;49.372;8.580;2023-01-29T16:55:34;17.70;88.80
32787;DHT22;19139;49.372;8.580;2023-01-29T16:58:25;17.70;88.90
32787;DHT22;19139;49.372;8.580;2023-01-29T17:01:04;17.70;89.00
32787;DHT22;19139;49.372;8.580;2023-01-29T17:03:38;17.70;89.10
32787;DHT22;19139;49.372;8.580;2023-01-29T17:06:18;17.70;89.20
32787;DHT22;19139;49.372;8.580;2023-01-29T17:08:45;17.70;89.30
32787;DHT22;19139;49.372;8.580;2023-01-29T17:11:42;17.70;89.40
32787;DHT22;19139;49.372;8.580;2023-01-29T17:14:08;17.80;89.50
32787;DHT22;19139;49.372;8.580;2023-01-29T17:16:49;17.80;89.50
32787;DHT22;19139;49.372;8.580;2023-01-29T17:19:18;17.70;89.40
32787;DHT22;19139;49.372;8.580;2023-01-29T17:21:48;17.80;89.40
32787;DHT22;19139;49.372;8.580;2023-01-29T17:24:14;17.70;89.30
32787;DHT22;19139;49.372;8.580;2023-01-29T17:26:41;17.70;89.30
32787;DHT22;19139;49.372;8.580;2023-01-29T17:29:17;17.70;89.30
32787;DHT22;19139;49.372;8.580;2023-01-29T17:31:45;17.70;89.20
32787;DHT22;19139;49.372;8.580;2023-01-29T17:34:14;17.70;89.10
32787;DHT22;19139;49.372;8.580;2023-01-29T17:36:42;17.70;89.10
32787;DHT22;19139;49.372;8.580;2023-01-29T17:39:22;17.70;89.10
32787;DHT22;19139;49.372;8.580;2023-01-29T17:41:55;17.70;89.10
32787;DHT22;19139;49.372;8.580;2023-01-29T17:44:27;17.70;89.10
32787;DHT22;19139;49.372;8.580;2023-01-29T17:46:59;17.70;89.30
32787;DHT22;19139;49.372;8.580;2023-01-29T17:49:31;17.70;89.70
32787;DHT22;19139;49.372;8.580;2023-01-29T17:52:02;17.80;90.00
32787;DHT22;19139;49.372;8.580;2023-01-29T17:54:29;17.80;90.20
32787;DHT22;19139;49.372;8.580;2023-01-29T17:57:01;17.80;90.30
32787;DHT22;19139;49.372;8.580;2023-01-29T17:59:32;17.80;90.40
32787;DHT22;19139;49.372;8.580;2023-01-29T18:01:59;17.80;90.60
32787;DHT22;19139;49.372;8.580;2023-01-29T18:04:31;17.80;90.70
32787;DHT22;19139;49.372;8.580;2023-01-29T18:06:57;17.80;90.80
32787;DHT22;19139;49.372;8.580;2023-01-29T18:09:24;17.80;90.80